sensor_id;sensor_type;location;lat;lon;timestamp;P1;durP1;ratioP1;P2;durP2;ratioP2
62990;SDS011;49084;48.204;16.202;2023-01-19T00:01:20;6.53;;;4.47;;
62990;SDS011;49084;48.204;16.202;2023-01-19T00:03:46;5.80;;;4.32;;
62990;SDS011;49084;48.204;16.202;2023-01-19T00:06:12;5.85;;;4.22;;
62990;SDS011;49084;48.204;16.202;2023-01-19T00:08:38;6.03;;;4.68;;
62990;SDS011;49084;48.204;16.202;2023-01-19T00:11:04;7.43;;;5.22;;
62990;SDS011;49084;48.204;16.202;2023-01-19T00:13:30;7.85;;;4.80;;
62990;SDS011;49084;48.204;16.202;2023-01-19T00:15:56;7.88;;;5.30;;
62990;SDS011;49084;48.204;16.202;2023-01-19T00:18:22;8.52;;;5.82;;
62990;SDS011;49084;48.204;16.202;2023-01-19T00:20:48;8.15;;;5.25;;
62990;SDS011;49084;48.204;16.202;2023-01-19T00:23:14;9.00;;;5.38;;
62990;SDS011;49084;48.204;16.202;2023-01-19T00:25:41;6.72;;;4.90;;
62990;SDS011;49084;48.204;16.202;2023-01-19T00:28:10;7.75;;;5.60;;
62990;SDS011;49084;48.204;16.202;2023-01-19T00:30:37;9.40;;;5.30;;
62990;SDS011;49084;48.204;16.202;2023-01-19T00:33:04;8.38;;;5.63;;
62990;SDS011;49084;48.204;16.202;2023-01-19T00:35:30;8.20;;;5.30;;
62990;SDS011;49084;48.204;16.202;2023-01-19T00:37:59;7.63;;;5.38;;
62990;SDS011;49084;48.204;16.202;2023-01-19T00:42:50;7.07;;;5.07;;
62990;SDS011;49084;48.204;16.202;2023-01-19T00:45:17;7.47;;;5.47;;
62990;SDS011;49084;48.204;16.202;2023-01-19T00:47:47;7.40;;;5.25;;
62990;SDS011;49084;48.204;16.202;2023-01-19T00:50:21;9.32;;;5.38;;
62990;SDS011;49084;48.204;16.202;2023-01-19T00:52:48;9.75;;;6.05;;
62990;SDS011;49084;48.204;16.202;2023-01-19T00:55:15;9.02;;;6.28;;
62990;SDS011;49084;48.204;16.202;2023-01-19T00:57:40;8.25;;;5.82;;
62990;SDS011;49084;48.204;16.202;2023-01-19T01:00:08;8.45;;;5.65;;
62990;SDS011;49084;48.204;16.202;2023-01-19T01:05:02;8.18;;;5.35;;
62990;SDS011;49084;48.204;16.202;2023-01-19T01:07:30;7.55;;;5.97;;
62990;SDS011;49084;48.204;16.202;2023-01-19T01:12:24;7.95;;;5.55;;
62990;SDS011;49084;48.204;16.202;2023-01-19T01:14:52;8.45;;;5.78;;
62990;SDS011;49084;48.204;16.202;2023-01-19T01:17:18;8.15;;;5.45;;
62990;SDS011;49084;48.204;16.202;2023-01-19T01:19:48;8.85;;;5.90;;
62990;SDS011;49084;48.204;16.202;2023-01-19T01:22:15;7.93;;;5.53;;
62990;SDS011;49084;48.204;16.202;2023-01-19T01:24:41;7.85;;;5.93;;
62990;SDS011;49084;48.204;16.202;2023-01-19T01:27:06;7.38;;;5.10;;
62990;SDS011;49084;48.204;16.202;2023-01-19T01:29:32;6.35;;;4.57;;
62990;SDS011;49084;48.204;16.202;2023-01-19T01:31:59;7.22;;;5.50;;
62990;SDS011;49084;48.204;16.202;2023-01-19T01:34:25;6.75;;;5.40;;
62990;SDS011;49084;48.204;16.202;2023-01-19T01:36:51;7.93;;;5.43;;
62990;SDS011;49084;48.204;16.202;2023-01-19T01:39:18;7.78;;;5.70;;
62990;SDS011;49084;48.204;16.202;2023-01-19T01:41:44;8.15;;;5.20;;
62990;SDS011;49084;48.204;16.202;2023-01-19T01:50:21;7.72;;;5.40;;
62990;SDS011;49084;48.204;16.202;2023-01-19T01:52:59;7.30;;;5.60;;
62990;SDS011;49084;48.204;16.202;2023-01-19T01:55:30;7.28;;;4.95;;
62990;SDS011;49084;48.204;16.202;2023-01-19T01:58:00;7.22;;;5.63;;
62990;SDS011;49084;48.204;16.202;2023-01-19T02:00:27;7.55;;;5.57;;
62990;SDS011;49084;48.204;16.202;2023-01-19T02:03:14;8.90;;;5.40;;
62990;SDS011;49084;48.204;16.202;2023-01-19T02:05:40;7.95;;;5.38;;
62990;SDS011;49084;48.204;16.202;2023-01-19T02:08:14;10.35;;;5.38;;
62990;SDS011;49084;48.204;16.202;2023-01-19T02:11:18;7.63;;;5.47;;
62990;SDS011;49084;48.204;16.202;2023-01-19T02:14:04;8.10;;;5.72;;
62990;SDS011;49084;48.204;16.202;2023-01-19T02:16:30;7.15;;;5.32;;
62990;SDS011;49084;48.204;16.202;2023-01-19T02:18:57;8.52;;;5.85;;
62990;SDS011;49084;48.204;16.202;2023-01-19T02:21:30;8.25;;;5.55;;
62990;SDS011;49084;48.204;16.202;2023-01-19T02:24:07;8.85;;;5.32;;
62990;SDS011;49084;48.204;16.202;2023-01-19T02:26:34;8.43;;;5.97;;
62990;SDS011;49084;48.204;16.202;2023-01-19T02:29:09;8.48;;;5.72;;
62990;SDS011;49084;48.204;16.202;2023-01-19T02:31:37;8.38;;;5.88;;
62990;SDS011;49084;48.204;16.202;2023-01-19T02:34:05;7.80;;;5.10;;
62990;SDS011;49084;48.204;16.202;2023-01-19T02:36:52;6.30;;;4.85;;
62990;SDS011;49084;48.204;16.202;2023-01-19T02:39:24;15.15;;;5.80;;
62990;SDS011;49084;48.204;16.202;2023-01-19T02:41:58;8.73;;;5.13;;
62990;SDS011;49084;48.204;16.202;2023-01-19T02:44:27;8.18;;;5.93;;
62990;SDS011;49084;48.204;16.202;2023-01-19T02:46:54;8.73;;;6.15;;
62990;SDS011;49084;48.204;16.202;2023-01-19T02:49:20;8.27;;;5.30;;
62990;SDS011;49084;48.204;16.202;2023-01-19T02:51:46;7.80;;;5.18;;
62990;SDS011;49084;48.204;16.202;2023-01-19T03:07:13;9.50;;;6.10;;
62990;SDS011;49084;48.204;16.202;2023-01-19T03:10:16;8.80;;;6.40;;
62990;SDS011;49084;48.204;16.202;2023-01-19T03:12:55;9.80;;;6.07;;
62990;SDS011;49084;48.204;16.202;2023-01-19T03:18:23;8.20;;;5.95;;
62990;SDS011;49084;48.204;16.202;2023-01-19T03:20:51;9.82;;;6.82;;
62990;SDS011;49084;48.204;16.202;2023-01-19T03:23:19;9.55;;;6.05;;
62990;SDS011;49084;48.204;16.202;2023-01-19T03:25:48;10.30;;;7.25;;
62990;SDS011;49084;48.204;16.202;2023-01-19T03:28:17;8.55;;;6.47;;
62990;SDS011;49084;48.204;16.202;2023-01-19T03:30:46;10.23;;;6.67;;
62990;SDS011;49084;48.204;16.202;2023-01-19T03:33:19;11.50;;;7.25;;
62990;SDS011;49084;48.204;16.202;2023-01-19T03:35:51;16.13;;;7.20;;
62990;SDS011;49084;48.204;16.202;2023-01-19T03:38:23;10.73;;;6.53;;
62990;SDS011;49084;48.204;16.202;2023-01-19T03:40:54;11.35;;;7.53;;
62990;SDS011;49084;48.204;16.202;2023-01-19T03:43:22;11.23;;;7.78;;
62990;SDS011;49084;48.204;16.202;2023-01-19T03:45:50;11.00;;;6.97;;
62990;SDS011;49084;48.204;16.202;2023-01-19T03:48:18;12.38;;;7.38;;
62990;SDS011;49084;48.204;16.202;2023-01-19T03:50:45;10.50;;;7.25;;
62990;SDS011;49084;48.204;16.202;2023-01-19T03:53:12;10.55;;;7.32;;
62990;SDS011;49084;48.204;16.202;2023-01-19T03:55:41;12.97;;;7.37;;
62990;SDS011;49084;48.204;16.202;2023-01-19T03:58:09;10.68;;;7.30;;
62990;SDS011;49084;48.204;16.202;2023-01-19T04:00:35;9.77;;;6.82;;
62990;SDS011;49084;48.204;16.202;2023-01-19T04:03:01;10.60;;;6.93;;
62990;SDS011;49084;48.204;16.202;2023-01-19T04:05:28;11.80;;;7.65;;
62990;SDS011;49084;48.204;16.202;2023-01-19T04:07:53;12.27;;;8.30;;
62990;SDS011;49084;48.204;16.202;2023-01-19T04:10:19;10.40;;;7.68;;
62990;SDS011;49084;48.204;16.202;2023-01-19T04:12:46;10.40;;;7.50;;
62990;SDS011;49084;48.204;16.202;2023-01-19T04:15:12;13.07;;;7.50;;
62990;SDS011;49084;48.204;16.202;2023-01-19T04:17:38;11.38;;;7.45;;
62990;SDS011;49084;48.204;16.202;2023-01-19T04:20:05;10.88;;;7.38;;
62990;SDS011;49084;48.204;16.202;2023-01-19T04:22:31;12.02;;;7.82;;
62990;SDS011;49084;48.204;16.202;2023-01-19T04:24:57;15.85;;;8.13;;
62990;SDS011;49084;48.204;16.202;2023-01-19T04:27:23;10.50;;;7.57;;
62990;SDS011;49084;48.204;16.202;2023-01-19T04:29:50;11.60;;;7.80;;
62990;SDS011;49084;48.204;16.202;2023-01-19T04:32:16;13.02;;;8.57;;
62990;SDS011;49084;48.204;16.202;2023-01-19T04:34:42;13.20;;;7.78;;
62990;SDS011;49084;48.204;16.202;2023-01-19T04:37:08;13.20;;;9.05;;
62990;SDS011;49084;48.204;16.202;2023-01-19T04:39:34;11.32;;;7.57;;
62990;SDS011;49084;48.204;16.202;2023-01-19T04:41:59;12.25;;;8.27;;
62990;SDS011;49084;48.204;16.202;2023-01-19T04:44:26;14.55;;;8.32;;
62990;SDS011;49084;48.204;16.202;2023-01-19T04:46:52;15.50;;;8.15;;
62990;SDS011;49084;48.204;16.202;2023-01-19T04:49:18;14.70;;;8.40;;
62990;SDS011;49084;48.204;16.202;2023-01-19T04:51:44;12.50;;;7.75;;
62990;SDS011;49084;48.204;16.202;2023-01-19T04:54:10;12.95;;;7.90;;
62990;SDS011;49084;48.204;16.202;2023-01-19T04:56:36;14.93;;;8.48;;
62990;SDS011;49084;48.204;16.202;2023-01-19T04:59:02;11.27;;;8.30;;
62990;SDS011;49084;48.204;16.202;2023-01-19T05:01:28;10.20;;;7.72;;
62990;SDS011;49084;48.204;16.202;2023-01-19T05:03:54;13.30;;;8.10;;
62990;SDS011;49084;48.204;16.202;2023-01-19T05:06:22;12.38;;;8.68;;
62990;SDS011;49084;48.204;16.202;2023-01-19T05:08:48;14.68;;;8.80;;
62990;SDS011;49084;48.204;16.202;2023-01-19T05:11:13;16.52;;;9.10;;
62990;SDS011;49084;48.204;16.202;2023-01-19T05:13:39;11.98;;;8.30;;
62990;SDS011;49084;48.204;16.202;2023-01-19T05:16:05;16.75;;;9.10;;
62990;SDS011;49084;48.204;16.202;2023-01-19T05:18:31;13.75;;;9.20;;
62990;SDS011;49084;48.204;16.202;2023-01-19T05:21:00;15.00;;;8.32;;
62990;SDS011;49084;48.204;16.202;2023-01-19T05:23:29;17.48;;;9.73;;
62990;SDS011;49084;48.204;16.202;2023-01-19T05:25:56;13.85;;;9.52;;
62990;SDS011;49084;48.204;16.202;2023-01-19T05:28:25;20.90;;;9.77;;
62990;SDS011;49084;48.204;16.202;2023-01-19T05:30:56;16.38;;;10.35;;
62990;SDS011;49084;48.204;16.202;2023-01-19T05:33:21;16.98;;;9.43;;
62990;SDS011;49084;48.204;16.202;2023-01-19T05:35:51;16.25;;;9.27;;
62990;SDS011;49084;48.204;16.202;2023-01-19T05:38:18;15.90;;;9.80;;
62990;SDS011;49084;48.204;16.202;2023-01-19T05:40:44;18.27;;;9.77;;
62990;SDS011;49084;48.204;16.202;2023-01-19T05:43:11;13.77;;;9.32;;
62990;SDS011;49084;48.204;16.202;2023-01-19T05:45:37;15.88;;;9.98;;
62990;SDS011;49084;48.204;16.202;2023-01-19T05:48:03;18.63;;;9.43;;
62990;SDS011;49084;48.204;16.202;2023-01-19T05:50:30;14.73;;;9.05;;
62990;SDS011;49084;48.204;16.202;2023-01-19T05:52:56;16.95;;;9.70;;
62990;SDS011;49084;48.204;16.202;2023-01-19T05:55:22;13.85;;;9.25;;
62990;SDS011;49084;48.204;16.202;2023-01-19T05:57:48;17.38;;;10.07;;
62990;SDS011;49084;48.204;16.202;2023-01-19T06:00:14;13.75;;;9.45;;
62990;SDS011;49084;48.204;16.202;2023-01-19T06:02:40;14.05;;;9.70;;
62990;SDS011;49084;48.204;16.202;2023-01-19T06:05:06;13.38;;;9.98;;
62990;SDS011;49084;48.204;16.202;2023-01-19T06:07:32;14.18;;;9.73;;
62990;SDS011;49084;48.204;16.202;2023-01-19T06:09:57;15.55;;;10.10;;
62990;SDS011;49084;48.204;16.202;2023-01-19T06:12:23;14.75;;;10.23;;
62990;SDS011;49084;48.204;16.202;2023-01-19T06:14:49;15.05;;;10.00;;
62990;SDS011;49084;48.204;16.202;2023-01-19T06:17:15;17.65;;;10.40;;
62990;SDS011;49084;48.204;16.202;2023-01-19T06:19:40;15.45;;;10.15;;
62990;SDS011;49084;48.204;16.202;2023-01-19T06:22:06;16.45;;;9.77;;
62990;SDS011;49084;48.204;16.202;2023-01-19T06:24:32;17.10;;;10.43;;
62990;SDS011;49084;48.204;16.202;2023-01-19T06:26:58;21.83;;;9.98;;
62990;SDS011;49084;48.204;16.202;2023-01-19T06:29:24;16.30;;;9.60;;
62990;SDS011;49084;48.204;16.202;2023-01-19T06:31:50;14.13;;;9.35;;
62990;SDS011;49084;48.204;16.202;2023-01-19T06:34:16;17.23;;;9.15;;
62990;SDS011;49084;48.204;16.202;2023-01-19T06:36:43;14.90;;;9.68;;
62990;SDS011;49084;48.204;16.202;2023-01-19T06:39:09;17.42;;;10.05;;
62990;SDS011;49084;48.204;16.202;2023-01-19T06:41:34;16.63;;;10.15;;
62990;SDS011;49084;48.204;16.202;2023-01-19T06:44:01;15.57;;;9.95;;
62990;SDS011;49084;48.204;16.202;2023-01-19T06:46:27;15.43;;;10.05;;
62990;SDS011;49084;48.204;16.202;2023-01-19T06:48:53;14.27;;;9.60;;
62990;SDS011;49084;48.204;16.202;2023-01-19T06:51:19;16.75;;;9.63;;
62990;SDS011;49084;48.204;16.202;2023-01-19T06:53:45;14.75;;;9.93;;
62990;SDS011;49084;48.204;16.202;2023-01-19T06:56:11;12.48;;;8.90;;
62990;SDS011;49084;48.204;16.202;2023-01-19T06:58:37;13.63;;;9.20;;
62990;SDS011;49084;48.204;16.202;2023-01-19T07:01:03;13.70;;;9.57;;
62990;SDS011;49084;48.204;16.202;2023-01-19T07:03:30;13.52;;;9.20;;
62990;SDS011;49084;48.204;16.202;2023-01-19T07:05:57;14.95;;;8.30;;
62990;SDS011;49084;48.204;16.202;2023-01-19T07:08:26;14.48;;;9.13;;
62990;SDS011;49084;48.204;16.202;2023-01-19T07:10:57;13.82;;;8.80;;
62990;SDS011;49084;48.204;16.202;2023-01-19T07:13:24;16.88;;;9.18;;
62990;SDS011;49084;48.204;16.202;2023-01-19T07:15:50;14.55;;;9.32;;
62990;SDS011;49084;48.204;16.202;2023-01-19T07:18:16;12.27;;;7.85;;
62990;SDS011;49084;48.204;16.202;2023-01-19T07:20:41;14.43;;;8.57;;
62990;SDS011;49084;48.204;16.202;2023-01-19T07:23:08;13.60;;;8.60;;
62990;SDS011;49084;48.204;16.202;2023-01-19T07:25:34;13.57;;;8.20;;
62990;SDS011;49084;48.204;16.202;2023-01-19T07:28:00;16.13;;;8.70;;
62990;SDS011;49084;48.204;16.202;2023-01-19T07:30:26;16.70;;;9.23;;
62990;SDS011;49084;48.204;16.202;2023-01-19T07:32:56;12.88;;;8.07;;
62990;SDS011;49084;48.204;16.202;2023-01-19T07:35:24;14.38;;;8.60;;
62990;SDS011;49084;48.204;16.202;2023-01-19T07:37:50;13.13;;;8.27;;
62990;SDS011;49084;48.204;16.202;2023-01-19T07:40:16;16.00;;;8.45;;
62990;SDS011;49084;48.204;16.202;2023-01-19T07:42:48;13.38;;;8.50;;
62990;SDS011;49084;48.204;16.202;2023-01-19T07:45:16;11.93;;;8.38;;
62990;SDS011;49084;48.204;16.202;2023-01-19T07:47:43;11.82;;;7.53;;
62990;SDS011;49084;48.204;16.202;2023-01-19T07:50:09;12.77;;;8.05;;
62990;SDS011;49084;48.204;16.202;2023-01-19T07:52:36;17.70;;;8.68;;
62990;SDS011;49084;48.204;16.202;2023-01-19T07:55:01;13.02;;;8.68;;
62990;SDS011;49084;48.204;16.202;2023-01-19T07:57:27;15.20;;;8.65;;
62990;SDS011;49084;48.204;16.202;2023-01-19T07:59:53;13.23;;;8.38;;
62990;SDS011;49084;48.204;16.202;2023-01-19T08:02:19;15.50;;;9.45;;
62990;SDS011;49084;48.204;16.202;2023-01-19T08:04:46;13.07;;;8.13;;
62990;SDS011;49084;48.204;16.202;2023-01-19T08:07:13;14.50;;;9.35;;
62990;SDS011;49084;48.204;16.202;2023-01-19T08:09:38;12.20;;;8.05;;
62990;SDS011;49084;48.204;16.202;2023-01-19T08:12:04;14.63;;;8.40;;
62990;SDS011;49084;48.204;16.202;2023-01-19T08:14:30;12.48;;;8.25;;
62990;SDS011;49084;48.204;16.202;2023-01-19T08:16:59;12.30;;;7.82;;
62990;SDS011;49084;48.204;16.202;2023-01-19T08:19:25;12.65;;;7.72;;
62990;SDS011;49084;48.204;16.202;2023-01-19T08:21:51;14.02;;;8.50;;
62990;SDS011;49084;48.204;16.202;2023-01-19T08:24:18;11.82;;;8.13;;
62990;SDS011;49084;48.204;16.202;2023-01-19T08:26:45;9.33;;;6.03;;
62990;SDS011;49084;48.204;16.202;2023-01-19T08:29:11;12.35;;;8.50;;
62990;SDS011;49084;48.204;16.202;2023-01-19T08:31:37;11.80;;;8.23;;
62990;SDS011;49084;48.204;16.202;2023-01-19T08:34:03;14.68;;;8.70;;
62990;SDS011;49084;48.204;16.202;2023-01-19T08:36:29;15.75;;;8.68;;
62990;SDS011;49084;48.204;16.202;2023-01-19T08:38:55;14.35;;;8.93;;
62990;SDS011;49084;48.204;16.202;2023-01-19T08:41:21;14.27;;;8.98;;
62990;SDS011;49084;48.204;16.202;2023-01-19T08:43:47;14.25;;;8.00;;
62990;SDS011;49084;48.204;16.202;2023-01-19T08:46:13;14.65;;;9.20;;
62990;SDS011;49084;48.204;16.202;2023-01-19T08:48:45;11.77;;;8.25;;
62990;SDS011;49084;48.204;16.202;2023-01-19T08:51:12;11.98;;;7.78;;
62990;SDS011;49084;48.204;16.202;2023-01-19T08:53:39;12.02;;;8.40;;
62990;SDS011;49084;48.204;16.202;2023-01-19T08:56:07;14.90;;;8.90;;
62990;SDS011;49084;48.204;16.202;2023-01-19T08:58:37;12.85;;;7.95;;
62990;SDS011;49084;48.204;16.202;2023-01-19T09:01:06;13.10;;;7.75;;
62990;SDS011;49084;48.204;16.202;2023-01-19T09:03:33;13.38;;;8.68;;
62990;SDS011;49084;48.204;16.202;2023-01-19T09:05:59;12.10;;;7.40;;
62990;SDS011;49084;48.204;16.202;2023-01-19T09:08:25;11.80;;;7.35;;
62990;SDS011;49084;48.204;16.202;2023-01-19T09:10:51;10.93;;;8.20;;
62990;SDS011;49084;48.204;16.202;2023-01-19T09:13:17;11.43;;;7.68;;
62990;SDS011;49084;48.204;16.202;2023-01-19T09:15:43;11.77;;;7.32;;
62990;SDS011;49084;48.204;16.202;2023-01-19T09:18:11;9.73;;;7.18;;
62990;SDS011;49084;48.204;16.202;2023-01-19T09:20:42;17.48;;;7.57;;
62990;SDS011;49084;48.204;16.202;2023-01-19T09:23:09;11.75;;;7.60;;
62990;SDS011;49084;48.204;16.202;2023-01-19T09:25:37;11.07;;;7.05;;
62990;SDS011;49084;48.204;16.202;2023-01-19T09:28:04;15.52;;;7.38;;
62990;SDS011;49084;48.204;16.202;2023-01-19T09:30:31;11.75;;;7.80;;
62990;SDS011;49084;48.204;16.202;2023-01-19T09:33:00;10.30;;;7.03;;
62990;SDS011;49084;48.204;16.202;2023-01-19T09:35:28;11.57;;;7.18;;
62990;SDS011;49084;48.204;16.202;2023-01-19T09:37:55;10.02;;;6.93;;
62990;SDS011;49084;48.204;16.202;2023-01-19T09:40:21;9.63;;;6.40;;
62990;SDS011;49084;48.204;16.202;2023-01-19T09:42:56;12.27;;;7.18;;
62990;SDS011;49084;48.204;16.202;2023-01-19T09:45:56;9.82;;;6.65;;
62990;SDS011;49084;48.204;16.202;2023-01-19T09:48:25;12.82;;;6.32;;
62990;SDS011;49084;48.204;16.202;2023-01-19T09:50:53;15.13;;;6.88;;
62990;SDS011;49084;48.204;16.202;2023-01-19T09:53:32;9.82;;;5.50;;
62990;SDS011;49084;48.204;16.202;2023-01-19T09:56:12;7.95;;;5.40;;
62990;SDS011;49084;48.204;16.202;2023-01-19T09:58:41;10.52;;;6.28;;
62990;SDS011;49084;48.204;16.202;2023-01-19T10:01:20;13.73;;;6.28;;
62990;SDS011;49084;48.204;16.202;2023-01-19T10:04:01;9.23;;;5.97;;
62990;SDS011;49084;48.204;16.202;2023-01-19T10:06:48;11.00;;;5.88;;
62990;SDS011;49084;48.204;16.202;2023-01-19T10:09:21;12.90;;;6.05;;
62990;SDS011;49084;48.204;16.202;2023-01-19T10:11:56;11.75;;;6.38;;
62990;SDS011;49084;48.204;16.202;2023-01-19T10:14:50;8.77;;;5.97;;
62990;SDS011;49084;48.204;16.202;2023-01-19T10:17:54;8.93;;;6.15;;
62990;SDS011;49084;48.204;16.202;2023-01-19T10:20:32;8.70;;;5.75;;
62990;SDS011;49084;48.204;16.202;2023-01-19T10:23:03;15.30;;;7.88;;
62990;SDS011;49084;48.204;16.202;2023-01-19T10:25:40;14.18;;;6.90;;
62990;SDS011;49084;48.204;16.202;2023-01-19T10:28:06;8.02;;;5.65;;
62990;SDS011;49084;48.204;16.202;2023-01-19T10:30:34;6.10;;;4.55;;
62990;SDS011;49084;48.204;16.202;2023-01-19T10:32:59;9.10;;;5.68;;
62990;SDS011;49084;48.204;16.202;2023-01-19T10:35:25;8.77;;;5.65;;
62990;SDS011;49084;48.204;16.202;2023-01-19T10:37:52;8.10;;;5.03;;
62990;SDS011;49084;48.204;16.202;2023-01-19T10:40:29;8.70;;;5.47;;
62990;SDS011;49084;48.204;16.202;2023-01-19T10:45:56;7.22;;;4.68;;
62990;SDS011;49084;48.204;16.202;2023-01-19T10:48:22;10.45;;;5.32;;
62990;SDS011;49084;48.204;16.202;2023-01-19T10:50:48;8.20;;;5.40;;
62990;SDS011;49084;48.204;16.202;2023-01-19T10:53:26;8.13;;;5.18;;
62990;SDS011;49084;48.204;16.202;2023-01-19T10:58:38;6.78;;;5.32;;
62990;SDS011;49084;48.204;16.202;2023-01-19T11:01:12;7.85;;;5.28;;
62990;SDS011;49084;48.204;16.202;2023-01-19T11:03:38;6.60;;;4.70;;
62990;SDS011;49084;48.204;16.202;2023-01-19T11:08:39;6.47;;;4.05;;
62990;SDS011;49084;48.204;16.202;2023-01-19T11:11:08;8.70;;;4.80;;
62990;SDS011;49084;48.204;16.202;2023-01-19T11:13:36;5.75;;;3.50;;
62990;SDS011;49084;48.204;16.202;2023-01-19T11:18:31;6.88;;;3.88;;
62990;SDS011;49084;48.204;16.202;2023-01-19T11:23:30;6.28;;;3.75;;
62990;SDS011;49084;48.204;16.202;2023-01-19T11:26:06;7.70;;;4.28;;
62990;SDS011;49084;48.204;16.202;2023-01-19T11:28:36;8.18;;;3.50;;
62990;SDS011;49084;48.204;16.202;2023-01-19T11:36:17;9.48;;;3.78;;
62990;SDS011;49084;48.204;16.202;2023-01-19T11:38:51;8.50;;;3.88;;
62990;SDS011;49084;48.204;16.202;2023-01-19T11:41:19;8.10;;;3.28;;
62990;SDS011;49084;48.204;16.202;2023-01-19T11:46:23;8.88;;;4.45;;
62990;SDS011;49084;48.204;16.202;2023-01-19T11:49:03;5.32;;;2.97;;
62990;SDS011;49084;48.204;16.202;2023-01-19T11:51:49;4.45;;;3.08;;
62990;SDS011;49084;48.204;16.202;2023-01-19T11:54:28;3.97;;;3.38;;
62990;SDS011;49084;48.204;16.202;2023-01-19T11:56:58;5.43;;;3.65;;
62990;SDS011;49084;48.204;16.202;2023-01-19T11:59:24;5.03;;;3.42;;
62990;SDS011;49084;48.204;16.202;2023-01-19T12:01:51;6.22;;;3.75;;
62990;SDS011;49084;48.204;16.202;2023-01-19T12:04:34;5.55;;;3.75;;
62990;SDS011;49084;48.204;16.202;2023-01-19T12:07:03;5.45;;;3.90;;
62990;SDS011;49084;48.204;16.202;2023-01-19T12:09:47;5.82;;;3.70;;
62990;SDS011;49084;48.204;16.202;2023-01-19T12:12:35;7.90;;;3.40;;
62990;SDS011;49084;48.204;16.202;2023-01-19T12:17:44;4.22;;;3.30;;
62990;SDS011;49084;48.204;16.202;2023-01-19T12:22:49;6.57;;;3.38;;
62990;SDS011;49084;48.204;16.202;2023-01-19T12:28:46;4.85;;;3.35;;
62990;SDS011;49084;48.204;16.202;2023-01-19T12:31:14;5.93;;;3.70;;
62990;SDS011;49084;48.204;16.202;2023-01-19T12:33:41;6.10;;;4.28;;
62990;SDS011;49084;48.204;16.202;2023-01-19T12:36:12;4.93;;;3.47;;
62990;SDS011;49084;48.204;16.202;2023-01-19T12:41:42;5.53;;;4.15;;
62990;SDS011;49084;48.204;16.202;2023-01-19T12:46:35;7.30;;;4.47;;
62990;SDS011;49084;48.204;16.202;2023-01-19T12:49:21;9.73;;;6.78;;
62990;SDS011;49084;48.204;16.202;2023-01-19T12:51:51;8.40;;;5.73;;
62990;SDS011;49084;48.204;16.202;2023-01-19T12:54:23;14.73;;;9.20;;
62990;SDS011;49084;48.204;16.202;2023-01-19T12:59:26;18.65;;;11.02;;
62990;SDS011;49084;48.204;16.202;2023-01-19T13:05:14;18.20;;;11.82;;
62990;SDS011;49084;48.204;16.202;2023-01-19T13:13:33;21.08;;;11.75;;
62990;SDS011;49084;48.204;16.202;2023-01-19T13:21:37;19.05;;;11.25;;
62990;SDS011;49084;48.204;16.202;2023-01-19T13:24:07;22.00;;;11.25;;
62990;SDS011;49084;48.204;16.202;2023-01-19T13:31:49;19.02;;;10.85;;
62990;SDS011;49084;48.204;16.202;2023-01-19T13:34:21;22.05;;;12.45;;
62990;SDS011;49084;48.204;16.202;2023-01-19T13:36:50;20.05;;;11.65;;
62990;SDS011;49084;48.204;16.202;2023-01-19T13:42:12;21.63;;;10.98;;
62990;SDS011;49084;48.204;16.202;2023-01-19T13:44:51;20.33;;;11.80;;
62990;SDS011;49084;48.204;16.202;2023-01-19T13:47:22;21.20;;;10.98;;
62990;SDS011;49084;48.204;16.202;2023-01-19T13:49:53;17.33;;;10.35;;
62990;SDS011;49084;48.204;16.202;2023-01-19T13:52:24;19.17;;;10.98;;
62990;SDS011;49084;48.204;16.202;2023-01-19T13:54:56;18.52;;;10.52;;
62990;SDS011;49084;48.204;16.202;2023-01-19T14:02:59;17.67;;;11.00;;
62990;SDS011;49084;48.204;16.202;2023-01-19T14:08:02;19.13;;;10.02;;
62990;SDS011;49084;48.204;16.202;2023-01-19T14:13:23;21.92;;;10.65;;
62990;SDS011;49084;48.204;16.202;2023-01-19T14:16:15;19.67;;;11.15;;
62990;SDS011;49084;48.204;16.202;2023-01-19T14:18:42;19.73;;;11.65;;
62990;SDS011;49084;48.204;16.202;2023-01-19T14:21:11;20.85;;;11.32;;
62990;SDS011;49084;48.204;16.202;2023-01-19T14:23:45;19.95;;;11.73;;
62990;SDS011;49084;48.204;16.202;2023-01-19T14:34:28;23.42;;;12.00;;
62990;SDS011;49084;48.204;16.202;2023-01-19T14:36:53;21.90;;;12.00;;
62990;SDS011;49084;48.204;16.202;2023-01-19T14:39:21;19.23;;;11.50;;
62990;SDS011;49084;48.204;16.202;2023-01-19T14:41:49;20.92;;;11.57;;
62990;SDS011;49084;48.204;16.202;2023-01-19T14:44:36;17.85;;;11.68;;
62990;SDS011;49084;48.204;16.202;2023-01-19T14:47:04;18.70;;;11.60;;
62990;SDS011;49084;48.204;16.202;2023-01-19T14:49:37;23.65;;;12.27;;
62990;SDS011;49084;48.204;16.202;2023-01-19T14:54:57;20.10;;;11.68;;
62990;SDS011;49084;48.204;16.202;2023-01-19T14:57:24;21.73;;;11.82;;
62990;SDS011;49084;48.204;16.202;2023-01-19T14:59:50;21.15;;;11.13;;
62990;SDS011;49084;48.204;16.202;2023-01-19T15:02:16;21.13;;;12.23;;
62990;SDS011;49084;48.204;16.202;2023-01-19T15:04:45;17.77;;;11.35;;
62990;SDS011;49084;48.204;16.202;2023-01-19T15:07:18;19.88;;;11.43;;
62990;SDS011;49084;48.204;16.202;2023-01-19T15:09:45;18.83;;;11.52;;
62990;SDS011;49084;48.204;16.202;2023-01-19T15:12:12;27.75;;;13.10;;
62990;SDS011;49084;48.204;16.202;2023-01-19T15:14:39;18.83;;;11.93;;
62990;SDS011;49084;48.204;16.202;2023-01-19T15:17:07;23.45;;;12.65;;
62990;SDS011;49084;48.204;16.202;2023-01-19T15:19:39;22.00;;;12.40;;
62990;SDS011;49084;48.204;16.202;2023-01-19T15:22:09;20.27;;;11.65;;
62990;SDS011;49084;48.204;16.202;2023-01-19T15:24:36;18.08;;;11.07;;
62990;SDS011;49084;48.204;16.202;2023-01-19T15:27:04;18.35;;;11.73;;
62990;SDS011;49084;48.204;16.202;2023-01-19T15:29:33;18.17;;;11.82;;
62990;SDS011;49084;48.204;16.202;2023-01-19T15:31:58;20.23;;;12.15;;
62990;SDS011;49084;48.204;16.202;2023-01-19T15:34:24;19.30;;;11.63;;
62990;SDS011;49084;48.204;16.202;2023-01-19T15:36:50;19.67;;;11.23;;
62990;SDS011;49084;48.204;16.202;2023-01-19T15:39:15;18.15;;;11.15;;
62990;SDS011;49084;48.204;16.202;2023-01-19T15:41:41;18.25;;;10.93;;
62990;SDS011;49084;48.204;16.202;2023-01-19T15:44:07;20.85;;;11.63;;
62990;SDS011;49084;48.204;16.202;2023-01-19T15:46:34;19.05;;;10.43;;
62990;SDS011;49084;48.204;16.202;2023-01-19T15:49:00;20.48;;;10.63;;
62990;SDS011;49084;48.204;16.202;2023-01-19T15:51:26;19.27;;;10.82;;
62990;SDS011;49084;48.204;16.202;2023-01-19T15:53:52;17.58;;;10.85;;
62990;SDS011;49084;48.204;16.202;2023-01-19T15:56:20;19.75;;;12.48;;
62990;SDS011;49084;48.204;16.202;2023-01-19T15:58:55;17.40;;;11.25;;
62990;SDS011;49084;48.204;16.202;2023-01-19T16:01:24;18.02;;;10.65;;
62990;SDS011;49084;48.204;16.202;2023-01-19T16:03:59;15.35;;;10.35;;
62990;SDS011;49084;48.204;16.202;2023-01-19T16:06:26;18.85;;;10.73;;
62990;SDS011;49084;48.204;16.202;2023-01-19T16:08:53;18.98;;;11.07;;
62990;SDS011;49084;48.204;16.202;2023-01-19T16:11:23;17.00;;;9.85;;
62990;SDS011;49084;48.204;16.202;2023-01-19T16:13:49;20.63;;;10.43;;
62990;SDS011;49084;48.204;16.202;2023-01-19T16:16:17;18.95;;;9.85;;
62990;SDS011;49084;48.204;16.202;2023-01-19T16:21:10;18.73;;;10.57;;
62990;SDS011;49084;48.204;16.202;2023-01-19T16:23:36;17.00;;;10.32;;
62990;SDS011;49084;48.204;16.202;2023-01-19T16:26:06;17.10;;;9.90;;
62990;SDS011;49084;48.204;16.202;2023-01-19T16:28:46;18.45;;;11.02;;